sensor_id;sensor_type;location;lat;lon;timestamp;P1;durP1;ratioP1;P2;durP2;ratioP2
4601;SDS011;2313;48.552;9.370;2023-06-22T00:02:15;12.73;;;8.33;;
4601;SDS011;2313;48.552;9.370;2023-06-22T00:04:40;15.93;;;8.60;;
4601;SDS011;2313;48.552;9.370;2023-06-22T00:07:06;13.13;;;8.20;;
4601;SDS011;2313;48.552;9.370;2023-06-22T00:09:31;12.17;;;9.17;;
4601;SDS011;2313;48.552;9.370;2023-06-22T00:11:57;13.70;;;8.07;;
4601;SDS011;2313;48.552;9.370;2023-06-22T00:14:23;13.63;;;9.13;;
4601;SDS011;2313;48.552;9.370;2023-06-22T00:16:49;11.23;;;8.47;;
4601;SDS011;2313;48.552;9.370;2023-06-22T00:19:17;13.73;;;8.67;;
4601;SDS011;2313;48.552;9.370;2023-06-22T00:21:44;16.50;;;8.83;;
4601;SDS011;2313;48.552;9.370;2023-06-22T00:24:12;14.47;;;9.00;;
4601;SDS011;2313;48.552;9.370;2023-06-22T00:26:38;14.40;;;9.10;;
4601;SDS011;2313;48.552;9.370;2023-06-22T00:29:03;14.07;;;7.83;;
4601;SDS011;2313;48.552;9.370;2023-06-22T00:31:29;12.70;;;8.83;;
4601;SDS011;2313;48.552;9.370;2023-06-22T00:33:54;17.27;;;9.13;;
4601;SDS011;2313;48.552;9.370;2023-06-22T00:36:20;15.40;;;9.40;;
4601;SDS011;2313;48.552;9.370;2023-06-22T00:38:46;13.83;;;8.47;;
4601;SDS011;2313;48.552;9.370;2023-06-22T00:41:11;12.23;;;7.93;;
4601;SDS011;2313;48.552;9.370;2023-06-22T00:43:37;19.93;;;9.40;;
4601;SDS011;2313;48.552;9.370;2023-06-22T00:46:02;14.70;;;8.47;;
4601;SDS011;2313;48.552;9.370;2023-06-22T00:48:28;12.90;;;7.47;;
4601;SDS011;2313;48.552;9.370;2023-06-22T00:50:54;12.73;;;8.57;;
4601;SDS011;2313;48.552;9.370;2023-06-22T00:53:20;14.70;;;8.20;;
4601;SDS011;2313;48.552;9.370;2023-06-22T00:55:46;18.60;;;8.70;;
4601;SDS011;2313;48.552;9.370;2023-06-22T00:58:16;14.40;;;8.07;;
4601;SDS011;2313;48.552;9.370;2023-06-22T01:00:46;15.40;;;8.23;;
4601;SDS011;2313;48.552;9.370;2023-06-22T01:03:12;11.43;;;8.60;;
4601;SDS011;2313;48.552;9.370;2023-06-22T01:05:38;12.60;;;8.37;;
4601;SDS011;2313;48.552;9.370;2023-06-22T01:08:29;12.27;;;8.77;;
4601;SDS011;2313;48.552;9.370;2023-06-22T01:11:06;14.23;;;8.30;;
4601;SDS011;2313;48.552;9.370;2023-06-22T01:16:25;11.83;;;9.00;;
4601;SDS011;2313;48.552;9.370;2023-06-22T01:18:54;14.50;;;8.60;;
4601;SDS011;2313;48.552;9.370;2023-06-22T01:21:23;13.13;;;8.70;;
4601;SDS011;2313;48.552;9.370;2023-06-22T01:26:43;16.27;;;8.90;;
4601;SDS011;2313;48.552;9.370;2023-06-22T01:29:25;13.70;;;8.37;;
4601;SDS011;2313;48.552;9.370;2023-06-22T01:31:53;12.00;;;8.73;;
4601;SDS011;2313;48.552;9.370;2023-06-22T01:34:21;12.50;;;8.60;;
4601;SDS011;2313;48.552;9.370;2023-06-22T01:36:48;11.77;;;8.40;;
4601;SDS011;2313;48.552;9.370;2023-06-22T01:39:15;11.23;;;8.17;;
4601;SDS011;2313;48.552;9.370;2023-06-22T01:41:41;20.10;;;8.73;;
4601;SDS011;2313;48.552;9.370;2023-06-22T01:44:08;13.40;;;8.33;;
4601;SDS011;2313;48.552;9.370;2023-06-22T01:46:35;14.40;;;7.73;;
4601;SDS011;2313;48.552;9.370;2023-06-22T01:49:02;16.50;;;7.83;;
4601;SDS011;2313;48.552;9.370;2023-06-22T01:51:29;11.00;;;7.87;;
4601;SDS011;2313;48.552;9.370;2023-06-22T01:53:55;13.30;;;9.00;;
4601;SDS011;2313;48.552;9.370;2023-06-22T01:56:20;17.10;;;9.07;;
4601;SDS011;2313;48.552;9.370;2023-06-22T01:58:48;13.90;;;9.37;;
4601;SDS011;2313;48.552;9.370;2023-06-22T02:01:21;15.33;;;9.30;;
4601;SDS011;2313;48.552;9.370;2023-06-22T02:04:09;8.80;;;7.67;;
4601;SDS011;2313;48.552;9.370;2023-06-22T02:06:43;14.73;;;8.20;;
4601;SDS011;2313;48.552;9.370;2023-06-22T02:09:16;10.10;;;8.00;;
4601;SDS011;2313;48.552;9.370;2023-06-22T02:11:44;14.57;;;8.53;;
4601;SDS011;2313;48.552;9.370;2023-06-22T02:14:11;17.70;;;9.47;;
4601;SDS011;2313;48.552;9.370;2023-06-22T02:16:38;13.37;;;8.60;;
4601;SDS011;2313;48.552;9.370;2023-06-22T02:19:05;13.87;;;8.17;;
4601;SDS011;2313;48.552;9.370;2023-06-22T02:21:31;13.87;;;8.83;;
4601;SDS011;2313;48.552;9.370;2023-06-22T02:23:57;12.30;;;8.70;;
4601;SDS011;2313;48.552;9.370;2023-06-22T02:26:23;15.90;;;9.17;;
4601;SDS011;2313;48.552;9.370;2023-06-22T02:28:51;14.47;;;8.73;;
4601;SDS011;2313;48.552;9.370;2023-06-22T02:31:17;16.83;;;10.20;;
4601;SDS011;2313;48.552;9.370;2023-06-22T02:33:43;18.40;;;9.93;;
4601;SDS011;2313;48.552;9.370;2023-06-22T02:36:09;13.33;;;9.47;;
4601;SDS011;2313;48.552;9.370;2023-06-22T02:38:38;13.63;;;9.60;;
4601;SDS011;2313;48.552;9.370;2023-06-22T02:41:10;18.27;;;10.90;;
4601;SDS011;2313;48.552;9.370;2023-06-22T02:43:38;15.90;;;10.63;;
4601;SDS011;2313;48.552;9.370;2023-06-22T02:46:03;18.53;;;11.10;;
4601;SDS011;2313;48.552;9.370;2023-06-22T02:48:29;21.40;;;10.40;;
4601;SDS011;2313;48.552;9.370;2023-06-22T02:50:54;16.60;;;10.00;;
4601;SDS011;2313;48.552;9.370;2023-06-22T02:53:20;14.23;;;10.27;;
4601;SDS011;2313;48.552;9.370;2023-06-22T02:55:45;11.37;;;8.47;;
4601;SDS011;2313;48.552;9.370;2023-06-22T02:58:11;13.80;;;9.87;;
4601;SDS011;2313;48.552;9.370;2023-06-22T03:00:37;14.20;;;10.40;;
4601;SDS011;2313;48.552;9.370;2023-06-22T03:03:04;15.43;;;9.47;;
4601;SDS011;2313;48.552;9.370;2023-06-22T03:05:29;16.10;;;10.00;;
4601;SDS011;2313;48.552;9.370;2023-06-22T03:07:55;17.10;;;10.17;;
4601;SDS011;2313;48.552;9.370;2023-06-22T03:10:21;16.10;;;9.90;;
4601;SDS011;2313;48.552;9.370;2023-06-22T03:12:46;14.30;;;10.37;;
4601;SDS011;2313;48.552;9.370;2023-06-22T03:15:12;16.20;;;10.00;;
4601;SDS011;2313;48.552;9.370;2023-06-22T03:17:38;16.67;;;9.27;;
4601;SDS011;2313;48.552;9.370;2023-06-22T03:20:05;14.13;;;9.67;;
4601;SDS011;2313;48.552;9.370;2023-06-22T03:22:35;14.07;;;9.50;;
4601;SDS011;2313;48.552;9.370;2023-06-22T03:25:02;13.70;;;9.20;;
4601;SDS011;2313;48.552;9.370;2023-06-22T03:27:28;16.83;;;9.27;;
4601;SDS011;2313;48.552;9.370;2023-06-22T03:29:53;20.80;;;9.77;;
4601;SDS011;2313;48.552;9.370;2023-06-22T03:32:19;19.50;;;9.43;;
4601;SDS011;2313;48.552;9.370;2023-06-22T03:34:44;15.33;;;10.50;;
4601;SDS011;2313;48.552;9.370;2023-06-22T03:37:13;17.50;;;10.07;;
4601;SDS011;2313;48.552;9.370;2023-06-22T03:39:39;18.20;;;9.30;;
4601;SDS011;2313;48.552;9.370;2023-06-22T03:42:06;14.90;;;9.50;;
4601;SDS011;2313;48.552;9.370;2023-06-22T03:44:31;24.90;;;11.30;;
4601;SDS011;2313;48.552;9.370;2023-06-22T03:46:57;16.10;;;10.07;;
4601;SDS011;2313;48.552;9.370;2023-06-22T03:49:22;20.20;;;9.07;;
4601;SDS011;2313;48.552;9.370;2023-06-22T03:51:48;12.63;;;9.40;;
4601;SDS011;2313;48.552;9.370;2023-06-22T03:54:13;14.40;;;9.10;;
4601;SDS011;2313;48.552;9.370;2023-06-22T03:56:39;14.83;;;8.83;;
4601;SDS011;2313;48.552;9.370;2023-06-22T03:59:05;11.10;;;9.43;;
4601;SDS011;2313;48.552;9.370;2023-06-22T04:01:30;17.20;;;9.10;;
4601;SDS011;2313;48.552;9.370;2023-06-22T04:03:56;12.17;;;8.03;;
4601;SDS011;2313;48.552;9.370;2023-06-22T04:06:21;14.57;;;8.80;;
4601;SDS011;2313;48.552;9.370;2023-06-22T04:08:47;13.07;;;9.10;;
4601;SDS011;2313;48.552;9.370;2023-06-22T04:11:16;13.43;;;9.13;;
4601;SDS011;2313;48.552;9.370;2023-06-22T04:13:42;10.77;;;8.23;;
4601;SDS011;2313;48.552;9.370;2023-06-22T04:16:08;13.03;;;8.10;;
4601;SDS011;2313;48.552;9.370;2023-06-22T04:18:33;18.73;;;7.93;;
4601;SDS011;2313;48.552;9.370;2023-06-22T04:20:59;14.70;;;8.20;;
4601;SDS011;2313;48.552;9.370;2023-06-22T04:23:25;10.27;;;7.33;;
4601;SDS011;2313;48.552;9.370;2023-06-22T04:25:50;10.17;;;7.30;;
4601;SDS011;2313;48.552;9.370;2023-06-22T04:28:16;11.63;;;7.03;;
4601;SDS011;2313;48.552;9.370;2023-06-22T04:30:42;12.10;;;7.20;;
4601;SDS011;2313;48.552;9.370;2023-06-22T04:33:13;13.00;;;8.00;;
4601;SDS011;2313;48.552;9.370;2023-06-22T04:35:39;12.90;;;7.30;;
4601;SDS011;2313;48.552;9.370;2023-06-22T04:38:07;12.20;;;7.10;;
4601;SDS011;2313;48.552;9.370;2023-06-22T04:40:33;15.17;;;7.60;;
4601;SDS011;2313;48.552;9.370;2023-06-22T04:42:59;17.40;;;7.07;;
4601;SDS011;2313;48.552;9.370;2023-06-22T04:45:27;10.90;;;7.77;;
4601;SDS011;2313;48.552;9.370;2023-06-22T04:47:54;13.37;;;8.33;;
4601;SDS011;2313;48.552;9.370;2023-06-22T04:50:20;10.73;;;8.00;;
4601;SDS011;2313;48.552;9.370;2023-06-22T04:52:46;11.13;;;7.80;;
4601;SDS011;2313;48.552;9.370;2023-06-22T04:55:12;10.57;;;7.77;;
4601;SDS011;2313;48.552;9.370;2023-06-22T04:57:43;12.67;;;8.57;;
4601;SDS011;2313;48.552;9.370;2023-06-22T05:00:18;12.83;;;8.67;;
4601;SDS011;2313;48.552;9.370;2023-06-22T05:02:48;15.10;;;9.07;;
4601;SDS011;2313;48.552;9.370;2023-06-22T05:05:14;15.00;;;7.20;;
4601;SDS011;2313;48.552;9.370;2023-06-22T05:07:44;10.77;;;7.97;;
4601;SDS011;2313;48.552;9.370;2023-06-22T05:10:12;17.63;;;8.73;;
4601;SDS011;2313;48.552;9.370;2023-06-22T05:12:38;19.07;;;9.00;;
4601;SDS011;2313;48.552;9.370;2023-06-22T05:15:05;21.93;;;8.77;;
4601;SDS011;2313;48.552;9.370;2023-06-22T05:17:35;11.73;;;8.07;;
4601;SDS011;2313;48.552;9.370;2023-06-22T05:20:02;12.37;;;8.90;;
4601;SDS011;2313;48.552;9.370;2023-06-22T05:22:31;12.90;;;7.80;;
4601;SDS011;2313;48.552;9.370;2023-06-22T05:24:57;14.57;;;8.73;;
4601;SDS011;2313;48.552;9.370;2023-06-22T05:27:22;18.30;;;7.43;;
4601;SDS011;2313;48.552;9.370;2023-06-22T05:29:48;14.30;;;8.40;;
4601;SDS011;2313;48.552;9.370;2023-06-22T05:32:13;19.27;;;8.80;;
4601;SDS011;2313;48.552;9.370;2023-06-22T05:34:39;11.13;;;6.97;;
4601;SDS011;2313;48.552;9.370;2023-06-22T05:37:05;19.20;;;7.87;;
4601;SDS011;2313;48.552;9.370;2023-06-22T05:39:31;11.43;;;6.70;;
4601;SDS011;2313;48.552;9.370;2023-06-22T05:41:56;11.27;;;7.77;;
4601;SDS011;2313;48.552;9.370;2023-06-22T05:44:22;14.83;;;7.43;;
4601;SDS011;2313;48.552;9.370;2023-06-22T05:46:48;14.00;;;7.67;;
4601;SDS011;2313;48.552;9.370;2023-06-22T05:49:13;12.27;;;6.90;;
4601;SDS011;2313;48.552;9.370;2023-06-22T05:51:40;12.80;;;6.90;;
4601;SDS011;2313;48.552;9.370;2023-06-22T05:54:06;11.40;;;6.70;;
4601;SDS011;2313;48.552;9.370;2023-06-22T05:56:33;15.43;;;8.03;;
4601;SDS011;2313;48.552;9.370;2023-06-22T05:58:59;15.50;;;8.30;;
4601;SDS011;2313;48.552;9.370;2023-06-22T06:01:25;16.70;;;8.20;;
4601;SDS011;2313;48.552;9.370;2023-06-22T06:03:51;14.13;;;7.87;;
4601;SDS011;2313;48.552;9.370;2023-06-22T06:06:17;10.30;;;7.80;;
4601;SDS011;2313;48.552;9.370;2023-06-22T06:08:46;13.20;;;6.60;;
4601;SDS011;2313;48.552;9.370;2023-06-22T06:11:11;11.10;;;7.80;;
4601;SDS011;2313;48.552;9.370;2023-06-22T06:13:37;12.63;;;7.87;;
4601;SDS011;2313;48.552;9.370;2023-06-22T06:16:03;18.13;;;8.03;;
4601;SDS011;2313;48.552;9.370;2023-06-22T06:18:28;16.33;;;7.83;;
4601;SDS011;2313;48.552;9.370;2023-06-22T06:20:54;13.57;;;7.73;;
4601;SDS011;2313;48.552;9.370;2023-06-22T06:23:20;17.10;;;7.30;;
4601;SDS011;2313;48.552;9.370;2023-06-22T06:25:45;18.20;;;8.40;;
4601;SDS011;2313;48.552;9.370;2023-06-22T06:28:11;10.83;;;7.03;;
4601;SDS011;2313;48.552;9.370;2023-06-22T06:30:36;11.00;;;7.40;;
4601;SDS011;2313;48.552;9.370;2023-06-22T06:33:02;12.27;;;7.37;;
4601;SDS011;2313;48.552;9.370;2023-06-22T06:35:33;22.00;;;7.80;;
4601;SDS011;2313;48.552;9.370;2023-06-22T06:37:59;10.10;;;6.90;;
4601;SDS011;2313;48.552;9.370;2023-06-22T06:40:25;16.10;;;6.83;;
4601;SDS011;2313;48.552;9.370;2023-06-22T06:42:50;10.93;;;6.70;;
4601;SDS011;2313;48.552;9.370;2023-06-22T06:45:17;14.20;;;8.00;;
4601;SDS011;2313;48.552;9.370;2023-06-22T06:47:44;11.90;;;7.17;;
4601;SDS011;2313;48.552;9.370;2023-06-22T06:50:10;10.43;;;6.30;;
4601;SDS011;2313;48.552;9.370;2023-06-22T06:52:36;9.47;;;6.47;;
4601;SDS011;2313;48.552;9.370;2023-06-22T06:55:02;11.30;;;7.10;;
4601;SDS011;2313;48.552;9.370;2023-06-22T06:57:29;9.43;;;5.60;;
4601;SDS011;2313;48.552;9.370;2023-06-22T06:59:55;9.83;;;6.93;;
4601;SDS011;2313;48.552;9.370;2023-06-22T07:02:22;18.60;;;7.67;;
4601;SDS011;2313;48.552;9.370;2023-06-22T07:04:48;15.13;;;8.27;;
4601;SDS011;2313;48.552;9.370;2023-06-22T07:07:14;11.03;;;7.63;;
4601;SDS011;2313;48.552;9.370;2023-06-22T07:09:40;13.77;;;7.40;;
4601;SDS011;2313;48.552;9.370;2023-06-22T07:12:06;11.97;;;7.10;;
4601;SDS011;2313;48.552;9.370;2023-06-22T07:14:32;11.80;;;7.10;;
4601;SDS011;2313;48.552;9.370;2023-06-22T07:16:58;11.33;;;5.63;;
4601;SDS011;2313;48.552;9.370;2023-06-22T07:19:27;10.37;;;6.50;;
4601;SDS011;2313;48.552;9.370;2023-06-22T07:21:53;10.67;;;6.13;;
4601;SDS011;2313;48.552;9.370;2023-06-22T07:24:19;15.43;;;7.67;;
4601;SDS011;2313;48.552;9.370;2023-06-22T07:26:47;12.97;;;6.47;;
4601;SDS011;2313;48.552;9.370;2023-06-22T07:29:14;11.07;;;6.93;;
4601;SDS011;2313;48.552;9.370;2023-06-22T07:31:41;12.50;;;6.90;;
4601;SDS011;2313;48.552;9.370;2023-06-22T07:34:07;10.83;;;6.17;;
4601;SDS011;2313;48.552;9.370;2023-06-22T07:36:32;12.00;;;6.70;;
4601;SDS011;2313;48.552;9.370;2023-06-22T07:39:00;10.53;;;6.43;;
4601;SDS011;2313;48.552;9.370;2023-06-22T07:41:27;9.90;;;5.80;;
4601;SDS011;2313;48.552;9.370;2023-06-22T07:43:53;17.23;;;6.77;;
4601;SDS011;2313;48.552;9.370;2023-06-22T07:46:18;14.10;;;6.00;;
4601;SDS011;2313;48.552;9.370;2023-06-22T07:48:44;10.47;;;6.63;;
4601;SDS011;2313;48.552;9.370;2023-06-22T07:51:09;14.00;;;6.50;;
4601;SDS011;2313;48.552;9.370;2023-06-22T07:53:39;11.57;;;6.50;;
4601;SDS011;2313;48.552;9.370;2023-06-22T07:56:10;10.47;;;5.87;;
4601;SDS011;2313;48.552;9.370;2023-06-22T07:58:36;11.07;;;6.50;;
4601;SDS011;2313;48.552;9.370;2023-06-22T08:01:01;13.20;;;6.60;;
4601;SDS011;2313;48.552;9.370;2023-06-22T08:03:28;11.37;;;6.23;;
4601;SDS011;2313;48.552;9.370;2023-06-22T08:05:54;15.70;;;6.17;;
4601;SDS011;2313;48.552;9.370;2023-06-22T08:08:20;12.07;;;6.47;;
4601;SDS011;2313;48.552;9.370;2023-06-22T08:10:45;11.50;;;6.37;;
4601;SDS011;2313;48.552;9.370;2023-06-22T08:13:11;11.77;;;6.93;;
4601;SDS011;2313;48.552;9.370;2023-06-22T08:15:37;10.30;;;6.70;;
4601;SDS011;2313;48.552;9.370;2023-06-22T08:18:02;10.83;;;6.80;;
4601;SDS011;2313;48.552;9.370;2023-06-22T08:20:28;12.83;;;6.57;;
4601;SDS011;2313;48.552;9.370;2023-06-22T08:22:55;14.03;;;7.03;;
4601;SDS011;2313;48.552;9.370;2023-06-22T08:25:22;19.37;;;7.80;;
4601;SDS011;2313;48.552;9.370;2023-06-22T08:27:48;18.57;;;7.10;;
4601;SDS011;2313;48.552;9.370;2023-06-22T08:30:14;17.60;;;6.80;;
4601;SDS011;2313;48.552;9.370;2023-06-22T08:32:40;12.63;;;7.43;;
4601;SDS011;2313;48.552;9.370;2023-06-22T08:35:06;13.30;;;7.00;;
4601;SDS011;2313;48.552;9.370;2023-06-22T08:37:33;11.03;;;6.70;;
4601;SDS011;2313;48.552;9.370;2023-06-22T08:40:01;9.67;;;6.20;;
4601;SDS011;2313;48.552;9.370;2023-06-22T08:42:30;11.70;;;6.97;;
4601;SDS011;2313;48.552;9.370;2023-06-22T08:44:56;12.57;;;7.07;;
4601;SDS011;2313;48.552;9.370;2023-06-22T08:47:22;10.77;;;6.30;;
4601;SDS011;2313;48.552;9.370;2023-06-22T08:49:48;19.17;;;7.67;;
4601;SDS011;2313;48.552;9.370;2023-06-22T08:52:14;10.43;;;7.50;;
4601;SDS011;2313;48.552;9.370;2023-06-22T08:54:40;15.20;;;6.23;;
4601;SDS011;2313;48.552;9.370;2023-06-22T08:57:05;18.80;;;6.97;;
4601;SDS011;2313;48.552;9.370;2023-06-22T08:59:31;11.10;;;6.70;;
4601;SDS011;2313;48.552;9.370;2023-06-22T09:01:57;9.37;;;6.20;;
4601;SDS011;2313;48.552;9.370;2023-06-22T09:04:23;8.73;;;6.97;;
4601;SDS011;2313;48.552;9.370;2023-06-22T09:06:49;12.47;;;7.50;;
4601;SDS011;2313;48.552;9.370;2023-06-22T09:09:17;11.07;;;6.50;;
4601;SDS011;2313;48.552;9.370;2023-06-22T09:11:43;9.53;;;6.93;;
4601;SDS011;2313;48.552;9.370;2023-06-22T09:14:09;13.23;;;7.10;;
4601;SDS011;2313;48.552;9.370;2023-06-22T09:16:35;13.20;;;7.13;;
4601;SDS011;2313;48.552;9.370;2023-06-22T09:19:01;19.97;;;7.80;;
4601;SDS011;2313;48.552;9.370;2023-06-22T09:21:26;19.10;;;7.87;;
4601;SDS011;2313;48.552;9.370;2023-06-22T09:23:52;13.73;;;8.00;;
4601;SDS011;2313;48.552;9.370;2023-06-22T09:26:18;12.83;;;6.87;;
4601;SDS011;2313;48.552;9.370;2023-06-22T09:28:44;8.93;;;7.33;;
4601;SDS011;2313;48.552;9.370;2023-06-22T09:31:09;14.30;;;7.30;;
4601;SDS011;2313;48.552;9.370;2023-06-22T09:33:36;12.47;;;6.50;;
4601;SDS011;2313;48.552;9.370;2023-06-22T09:36:05;14.50;;;8.20;;
4601;SDS011;2313;48.552;9.370;2023-06-22T09:38:34;16.00;;;7.87;;
4601;SDS011;2313;48.552;9.370;2023-06-22T09:41:02;14.13;;;7.43;;
4601;SDS011;2313;48.552;9.370;2023-06-22T09:43:29;12.07;;;7.60;;
4601;SDS011;2313;48.552;9.370;2023-06-22T09:45:56;13.20;;;7.10;;
4601;SDS011;2313;48.552;9.370;2023-06-22T09:48:21;12.73;;;6.50;;
4601;SDS011;2313;48.552;9.370;2023-06-22T09:50:47;14.37;;;7.47;;
4601;SDS011;2313;48.552;9.370;2023-06-22T09:53:13;18.20;;;7.87;;
4601;SDS011;2313;48.552;9.370;2023-06-22T09:55:38;14.70;;;6.80;;
4601;SDS011;2313;48.552;9.370;2023-06-22T09:58:04;13.50;;;6.20;;
4601;SDS011;2313;48.552;9.370;2023-06-22T10:00:30;9.13;;;6.43;;
4601;SDS011;2313;48.552;9.370;2023-06-22T10:02:55;12.73;;;6.60;;
4601;SDS011;2313;48.552;9.370;2023-06-22T10:05:22;10.13;;;6.47;;
4601;SDS011;2313;48.552;9.370;2023-06-22T10:07:48;19.10;;;7.70;;
4601;SDS011;2313;48.552;9.370;2023-06-22T10:10:14;17.70;;;7.50;;
4601;SDS011;2313;48.552;9.370;2023-06-22T10:12:45;16.53;;;6.83;;
4601;SDS011;2313;48.552;9.370;2023-06-22T10:15:12;12.00;;;6.60;;
4601;SDS011;2313;48.552;9.370;2023-06-22T10:17:41;13.80;;;6.83;;
4601;SDS011;2313;48.552;9.370;2023-06-22T10:20:06;16.60;;;7.73;;
4601;SDS011;2313;48.552;9.370;2023-06-22T10:22:42;12.23;;;6.17;;
4601;SDS011;2313;48.552;9.370;2023-06-22T10:25:09;15.47;;;7.50;;
4601;SDS011;2313;48.552;9.370;2023-06-22T10:27:36;11.90;;;7.23;;
4601;SDS011;2313;48.552;9.370;2023-06-22T10:30:04;14.60;;;7.40;;
4601;SDS011;2313;48.552;9.370;2023-06-22T10:32:32;18.23;;;6.70;;
4601;SDS011;2313;48.552;9.370;2023-06-22T10:34:58;11.80;;;6.80;;
4601;SDS011;2313;48.552;9.370;2023-06-22T10:37:24;13.07;;;6.40;;
4601;SDS011;2313;48.552;9.370;2023-06-22T10:39:49;19.30;;;7.33;;
4601;SDS011;2313;48.552;9.370;2023-06-22T10:42:15;18.83;;;6.60;;
4601;SDS011;2313;48.552;9.370;2023-06-22T10:44:40;16.37;;;7.20;;
4601;SDS011;2313;48.552;9.370;2023-06-22T10:47:09;15.90;;;7.00;;
4601;SDS011;2313;48.552;9.370;2023-06-22T10:49:36;19.83;;;8.87;;
4601;SDS011;2313;48.552;9.370;2023-06-22T10:52:05;10.10;;;7.43;;
4601;SDS011;2313;48.552;9.370;2023-06-22T10:54:32;15.00;;;6.20;;
4601;SDS011;2313;48.552;9.370;2023-06-22T10:56:59;16.80;;;7.87;;
4601;SDS011;2313;48.552;9.370;2023-06-22T10:59:25;18.80;;;6.70;;
4601;SDS011;2313;48.552;9.370;2023-06-22T11:01:51;15.77;;;6.53;;
4601;SDS011;2313;48.552;9.370;2023-06-22T11:04:17;11.23;;;7.70;;
4601;SDS011;2313;48.552;9.370;2023-06-22T11:06:42;15.97;;;7.53;;
4601;SDS011;2313;48.552;9.370;2023-06-22T11:09:08;16.23;;;8.10;;
4601;SDS011;2313;48.552;9.370;2023-06-22T11:11:34;13.77;;;7.60;;
4601;SDS011;2313;48.552;9.370;2023-06-22T11:13:59;12.10;;;7.00;;
4601;SDS011;2313;48.552;9.370;2023-06-22T11:16:25;14.37;;;7.30;;
4601;SDS011;2313;48.552;9.370;2023-06-22T11:18:52;14.03;;;6.53;;
4601;SDS011;2313;48.552;9.370;2023-06-22T11:21:17;12.83;;;7.80;;
4601;SDS011;2313;48.552;9.370;2023-06-22T11:23:43;9.83;;;6.90;;
4601;SDS011;2313;48.552;9.370;2023-06-22T11:26:09;11.60;;;7.30;;
4601;SDS011;2313;48.552;9.370;2023-06-22T11:28:34;21.40;;;8.40;;
4601;SDS011;2313;48.552;9.370;2023-06-22T11:31:00;11.77;;;6.90;;
4601;SDS011;2313;48.552;9.370;2023-06-22T11:33:26;20.53;;;7.53;;
4601;SDS011;2313;48.552;9.370;2023-06-22T11:35:52;15.37;;;6.73;;
4601;SDS011;2313;48.552;9.370;2023-06-22T11:38:18;16.87;;;8.63;;
4601;SDS011;2313;48.552;9.370;2023-06-22T11:40:44;18.37;;;7.70;;
4601;SDS011;2313;48.552;9.370;2023-06-22T11:43:10;14.93;;;7.83;;
4601;SDS011;2313;48.552;9.370;2023-06-22T11:45:36;12.97;;;6.40;;
4601;SDS011;2313;48.552;9.370;2023-06-22T11:48:01;19.00;;;8.37;;
4601;SDS011;2313;48.552;9.370;2023-06-22T11:50:27;21.10;;;8.27;;
4601;SDS011;2313;48.552;9.370;2023-06-22T11:52:55;12.87;;;7.07;;
4601;SDS011;2313;48.552;9.370;2023-06-22T11:55:20;13.40;;;7.57;;
4601;SDS011;2313;48.552;9.370;2023-06-22T11:57:53;12.50;;;7.27;;
4601;SDS011;2313;48.552;9.370;2023-06-22T12:00:21;16.07;;;8.40;;
4601;SDS011;2313;48.552;9.370;2023-06-22T12:02:48;15.83;;;7.43;;
4601;SDS011;2313;48.552;9.370;2023-06-22T12:05:16;16.17;;;7.70;;
4601;SDS011;2313;48.552;9.370;2023-06-22T12:07:43;17.23;;;7.67;;
4601;SDS011;2313;48.552;9.370;2023-06-22T12:10:08;10.50;;;7.43;;
4601;SDS011;2313;48.552;9.370;2023-06-22T12:12:34;13.87;;;6.67;;
4601;SDS011;2313;48.552;9.370;2023-06-22T12:15:00;26.63;;;8.40;;
4601;SDS011;2313;48.552;9.370;2023-06-22T12:17:28;17.27;;;7.77;;
4601;SDS011;2313;48.552;9.370;2023-06-22T12:19:54;16.17;;;7.70;;
4601;SDS011;2313;48.552;9.370;2023-06-22T12:22:20;14.73;;;7.90;;
4601;SDS011;2313;48.552;9.370;2023-06-22T12:24:46;18.30;;;8.23;;
4601;SDS011;2313;48.552;9.370;2023-06-22T12:27:11;16.57;;;8.20;;
4601;SDS011;2313;48.552;9.370;2023-06-22T12:29:37;18.97;;;8.47;;
4601;SDS011;2313;48.552;9.370;2023-06-22T12:32:02;12.97;;;7.27;;
4601;SDS011;2313;48.552;9.370;2023-06-22T12:34:28;12.17;;;7.30;;
4601;SDS011;2313;48.552;9.370;2023-06-22T12:36:54;11.20;;;7.30;;
4601;SDS011;2313;48.552;9.370;2023-06-22T12:39:20;14.63;;;8.00;;
4601;SDS011;2313;48.552;9.370;2023-06-22T12:41:45;18.10;;;8.00;;
4601;SDS011;2313;48.552;9.370;2023-06-22T12:44:11;13.67;;;7.20;;
4601;SDS011;2313;48.552;9.370;2023-06-22T12:46:37;17.13;;;7.90;;
4601;SDS011;2313;48.552;9.370;2023-06-22T12:49:03;17.83;;;7.80;;
4601;SDS011;2313;48.552;9.370;2023-06-22T12:51:30;23.90;;;8.60;;
4601;SDS011;2313;48.552;9.370;2023-06-22T12:53:55;20.77;;;8.40;;
4601;SDS011;2313;48.552;9.370;2023-06-22T12:56:21;14.00;;;7.30;;
4601;SDS011;2313;48.552;9.370;2023-06-22T12:58:47;18.83;;;7.37;;
4601;SDS011;2313;48.552;9.370;2023-06-22T13:01:13;18.73;;;6.70;;
4601;SDS011;2313;48.552;9.370;2023-06-22T13:03:39;14.37;;;7.17;;
4601;SDS011;2313;48.552;9.370;2023-06-22T13:06:04;19.43;;;7.60;;
4601;SDS011;2313;48.552;9.370;2023-06-22T13:08:30;14.37;;;7.77;;
4601;SDS011;2313;48.552;9.370;2023-06-22T13:10:55;20.07;;;7.50;;
4601;SDS011;2313;48.552;9.370;2023-06-22T13:13:25;13.03;;;7.57;;
4601;SDS011;2313;48.552;9.370;2023-06-22T13:15:52;13.00;;;7.93;;
4601;SDS011;2313;48.552;9.370;2023-06-22T13:18:18;19.67;;;7.87;;
4601;SDS011;2313;48.552;9.370;2023-06-22T13:20:44;19.63;;;6.93;;
4601;SDS011;2313;48.552;9.370;2023-06-22T13:23:10;16.90;;;7.10;;
4601;SDS011;2313;48.552;9.370;2023-06-22T13:25:36;12.17;;;6.53;;
4601;SDS011;2313;48.552;9.370;2023-06-22T13:28:02;13.83;;;7.23;;
4601;SDS011;2313;48.552;9.370;2023-06-22T13:30:28;17.27;;;7.70;;
4601;SDS011;2313;48.552;9.370;2023-06-22T13:32:54;15.57;;;7.17;;
4601;SDS011;2313;48.552;9.370;2023-06-22T13:35:19;17.57;;;7.13;;
4601;SDS011;2313;48.552;9.370;2023-06-22T13:37:45;12.53;;;7.60;;
4601;SDS011;2313;48.552;9.370;2023-06-22T13:40:11;15.20;;;7.33;;
4601;SDS011;2313;48.552;9.370;2023-06-22T13:42:36;13.10;;;6.90;;
4601;SDS011;2313;48.552;9.370;2023-06-22T13:45:02;18.87;;;7.80;;
4601;SDS011;2313;48.552;9.370;2023-06-22T13:47:29;16.20;;;8.00;;
4601;SDS011;2313;48.552;9.370;2023-06-22T13:49:55;17.53;;;6.90;;
4601;SDS011;2313;48.552;9.370;2023-06-22T13:52:20;12.90;;;6.73;;
4601;SDS011;2313;48.552;9.370;2023-06-22T13:54:46;15.83;;;7.27;;
4601;SDS011;2313;48.552;9.370;2023-06-22T13:57:12;19.07;;;6.67;;
4601;SDS011;2313;48.552;9.370;2023-06-22T13:59:37;22.23;;;7.10;;
4601;SDS011;2313;48.552;9.370;2023-06-22T14:02:03;19.90;;;7.80;;
4601;SDS011;2313;48.552;9.370;2023-06-22T14:04:29;15.73;;;6.80;;
4601;SDS011;2313;48.552;9.370;2023-06-22T14:06:55;14.50;;;7.13;;
4601;SDS011;2313;48.552;9.370;2023-06-22T14:09:21;15.33;;;7.10;;
4601;SDS011;2313;48.552;9.370;2023-06-22T14:11:46;14.17;;;7.10;;
4601;SDS011;2313;48.552;9.370;2023-06-22T14:14:12;18.13;;;6.70;;
4601;SDS011;2313;48.552;9.370;2023-06-22T14:16:37;13.53;;;6.50;;
4601;SDS011;2313;48.552;9.370;2023-06-22T14:19:03;14.13;;;6.97;;
4601;SDS011;2313;48.552;9.370;2023-06-22T14:21:29;15.67;;;6.67;;
4601;SDS011;2313;48.552;9.370;2023-06-22T14:23:54;14.87;;;6.97;;
4601;SDS011;2313;48.552;9.370;2023-06-22T14:26:20;14.10;;;7.43;;
4601;SDS011;2313;48.552;9.370;2023-06-22T14:28:46;12.07;;;6.23;;
4601;SDS011;2313;48.552;9.370;2023-06-22T14:31:16;18.90;;;7.60;;
4601;SDS011;2313;48.552;9.370;2023-06-22T14:33:47;15.30;;;6.20;;
4601;SDS011;2313;48.552;9.370;2023-06-22T14:36:14;17.33;;;6.90;;
4601;SDS011;2313;48.552;9.370;2023-06-22T14:38:40;20.63;;;7.20;;
4601;SDS011;2313;48.552;9.370;2023-06-22T14:41:06;14.70;;;6.60;;
4601;SDS011;2313;48.552;9.370;2023-06-22T14:43:31;12.13;;;6.00;;
4601;SDS011;2313;48.552;9.370;2023-06-22T14:45:57;19.23;;;7.93;;
4601;SDS011;2313;48.552;9.370;2023-06-22T14:48:22;11.83;;;6.37;;
4601;SDS011;2313;48.552;9.370;2023-06-22T14:50:48;14.50;;;6.50;;
4601;SDS011;2313;48.552;9.370;2023-06-22T14:53:14;12.63;;;6.03;;
4601;SDS011;2313;48.552;9.370;2023-06-22T14:55:40;14.83;;;6.67;;
4601;SDS011;2313;48.552;9.370;2023-06-22T14:58:05;13.23;;;7.00;;
4601;SDS011;2313;48.552;9.370;2023-06-22T15:00:31;13.93;;;6.60;;
4601;SDS011;2313;48.552;9.370;2023-06-22T15:02:57;16.30;;;7.27;;